createdAt,value
2023-05-07T00:02:02.704Z,60.91
2023-05-07T00:04:29.947Z,60.94
2023-05-07T00:06:57.067Z,60.60
2023-05-07T00:09:24.293Z,61.40
2023-05-07T00:11:51.378Z,61.39
2023-05-07T00:14:18.360Z,60.91
2023-05-07T00:16:45.692Z,61.53
2023-05-07T00:19:12.698Z,61.36
2023-05-07T00:21:39.641Z,61.75
2023-05-07T00:24:06.612Z,62.18
2023-05-07T00:26:33.550Z,61.95
2023-05-07T00:29:00.581Z,61.60
2023-05-07T00:31:27.557Z,60.67
2023-05-07T00:33:55.224Z,60.72
2023-05-07T00:36:22.140Z,60.56
2023-05-07T00:38:49.092Z,60.56
2023-05-07T00:41:16.651Z,60.28
2023-05-07T00:43:43.650Z,60.06
2023-05-07T00:46:11.283Z,59.86
2023-05-07T00:48:38.350Z,59.83
2023-05-07T00:51:05.726Z,60.08
2023-05-07T00:53:32.745Z,60.26
2023-05-07T00:55:59.992Z,60.86
2023-05-07T00:58:27.047Z,61.71
2023-05-07T01:00:54.033Z,61.38
2023-05-07T01:03:22.009Z,61.29
2023-05-07T01:05:51.549Z,62.08
2023-05-07T01:08:19.657Z,62.51
2023-05-07T01:10:47.664Z,62.77
2023-05-07T01:13:16.369Z,62.76
2023-05-07T01:15:44.629Z,63.00
2023-05-07T01:18:11.982Z,63.21
2023-05-07T01:20:39.186Z,62.94
2023-05-07T01:23:08.196Z,62.87
2023-05-07T01:25:35.799Z,63.10
2023-05-07T01:28:03.550Z,63.05
2023-05-07T01:30:37.248Z,63.13
2023-05-07T01:33:16.942Z,63.16
2023-05-07T01:35:48.394Z,61.94
2023-05-07T01:38:16.111Z,61.54
2023-05-07T01:40:44.057Z,60.98
2023-05-07T01:43:11.845Z,60.84
2023-05-07T01:45:40.346Z,60.95
2023-05-07T01:48:08.780Z,61.02
2023-05-07T01:50:36.760Z,61.24
2023-05-07T01:53:03.894Z,60.91
2023-05-07T01:55:30.939Z,61.01
2023-05-07T01:57:57.968Z,60.81
2023-05-07T02:00:25.135Z,61.09
2023-05-07T02:02:53.921Z,60.95
2023-05-07T02:05:30.142Z,61.16
2023-05-07T02:08:06.258Z,61.16
2023-05-07T02:10:33.371Z,61.32
2023-05-07T02:13:05.979Z,61.53
2023-05-07T02:15:33.003Z,60.91
2023-05-07T02:18:05.310Z,60.91
2023-05-07T02:20:33.025Z,60.59
2023-05-07T02:23:00.039Z,60.33
2023-05-07T02:25:30.323Z,59.50
2023-05-07T02:27:57.386Z,59.42
2023-05-07T02:30:34.205Z,58.41
2023-05-07T02:33:01.434Z,58.04
2023-05-07T02:35:28.343Z,57.99
2023-05-07T02:37:55.606Z,58.04
2023-05-07T02:40:24.841Z,58.41
2023-05-07T02:42:51.844Z,59.04
2023-05-07T02:45:19.122Z,59.45
2023-05-07T02:47:47.664Z,60.15
2023-05-07T02:50:15.004Z,60.26
2023-05-07T02:52:41.975Z,60.81
2023-05-07T02:55:09.591Z,61.19
2023-05-07T02:57:36.689Z,61.91
2023-05-07T03:00:18.972Z,62.02
2023-05-07T03:02:55.972Z,62.58
2023-05-07T03:05:23.210Z,62.43
2023-05-07T03:07:50.362Z,62.13
2023-05-07T03:10:17.452Z,62.22
2023-05-07T03:12:44.736Z,62.76
2023-05-07T03:15:15.965Z,63.02
2023-05-07T03:17:43.180Z,62.38
2023-05-07T03:20:11.252Z,60.25
2023-05-07T03:22:39.121Z,58.76
2023-05-07T03:25:06.677Z,59.10
2023-05-07T03:27:33.693Z,60.83
2023-05-07T03:30:01.238Z,61.10
2023-05-07T03:32:28.496Z,60.93
2023-05-07T03:34:55.605Z,60.92
2023-05-07T03:37:23.016Z,60.96
2023-05-07T03:39:50.462Z,61.19
2023-05-07T03:42:18.490Z,61.27
2023-05-07T03:44:46.958Z,61.20
2023-05-07T03:47:14.501Z,61.52
2023-05-07T03:49:41.617Z,61.74
2023-05-07T03:52:09.153Z,62.15
2023-05-07T03:54:36.466Z,62.06
2023-05-07T03:57:03.695Z,62.06
2023-05-07T03:59:30.754Z,62.28
2023-05-07T04:01:59.247Z,62.58
2023-05-07T04:04:28.216Z,63.19
2023-05-07T04:06:55.229Z,63.20
2023-05-07T04:09:23.050Z,63.18
2023-05-07T04:11:50.004Z,62.97
2023-05-07T04:14:16.960Z,62.98
2023-05-07T04:16:43.939Z,62.79
2023-05-07T04:19:10.942Z,62.32
2023-05-07T04:21:39.303Z,62.28
2023-05-07T04:24:06.607Z,62.15
2023-05-07T04:26:34.005Z,62.35
2023-05-07T04:29:01.636Z,62.37
2023-05-07T04:31:33.053Z,62.39
2023-05-07T04:34:00.312Z,62.15
2023-05-07T04:36:28.983Z,61.76
2023-05-07T04:39:04.176Z,61.81
2023-05-07T04:41:31.589Z,61.25
2023-05-07T04:44:00.101Z,60.63
2023-05-07T04:46:30.769Z,60.25
2023-05-07T04:48:58.633Z,59.50
2023-05-07T04:51:25.672Z,59.54
2023-05-07T04:53:52.888Z,58.79
2023-05-07T04:56:20.211Z,58.19
2023-05-07T04:58:47.819Z,57.78
2023-05-07T05:01:17.072Z,57.62
2023-05-07T05:03:44.298Z,57.29
2023-05-07T05:06:11.296Z,55.66
2023-05-07T05:08:38.473Z,55.24
2023-05-07T05:11:05.959Z,55.21
2023-05-07T05:13:35.401Z,54.10
2023-05-07T05:16:08.948Z,54.66
2023-05-07T05:18:36.137Z,54.47
2023-05-07T05:21:03.199Z,54.36
2023-05-07T05:23:31.265Z,54.13
2023-05-07T05:25:59.427Z,54.41
2023-05-07T05:28:29.333Z,53.83
2023-05-07T05:30:57.140Z,54.03
2023-05-07T05:33:26.489Z,53.90
2023-05-07T05:35:55.468Z,54.06
2023-05-07T05:38:22.474Z,53.75
2023-05-07T05:40:50.641Z,53.75
2023-05-07T05:43:18.108Z,53.89
2023-05-07T05:45:45.294Z,53.60
2023-05-07T05:48:12.537Z,53.85
2023-05-07T05:50:39.658Z,53.91
2023-05-07T05:53:07.562Z,53.46
2023-05-07T05:55:35.528Z,53.45
2023-05-07T05:58:02.877Z,53.29
2023-05-07T06:00:31.875Z,53.40
2023-05-07T06:03:03.621Z,52.78
2023-05-07T06:05:30.793Z,53.24
2023-05-07T06:07:58.499Z,52.93
2023-05-07T06:10:28.432Z,52.68
2023-05-07T06:12:55.833Z,52.78
2023-05-07T06:15:23.698Z,52.71
2023-05-07T06:17:51.837Z,52.34
2023-05-07T06:20:18.841Z,52.49
2023-05-07T06:22:46.031Z,52.32
2023-05-07T06:25:15.649Z,51.64
2023-05-07T06:27:43.920Z,53.39
2023-05-07T06:30:11.465Z,54.98
2023-05-07T06:32:38.626Z,56.86
2023-05-07T06:35:06.542Z,57.38
2023-05-07T06:37:39.484Z,57.47
2023-05-07T06:40:08.939Z,57.25
2023-05-07T06:42:39.065Z,57.74
2023-05-07T06:45:34.774Z,56.94
2023-05-07T06:48:02.383Z,56.56
2023-05-07T06:50:33.229Z,56.73
2023-05-07T06:53:00.376Z,57.11
2023-05-07T06:55:27.370Z,56.85
2023-05-07T06:57:56.549Z,56.91
2023-05-07T07:00:25.059Z,57.20
2023-05-07T07:02:56.270Z,57.52
2023-05-07T07:05:26.365Z,57.81
2023-05-07T07:07:56.207Z,57.58
2023-05-07T07:10:24.621Z,56.71
2023-05-07T07:12:53.942Z,56.31
2023-05-07T07:15:22.120Z,56.90
2023-05-07T07:17:50.559Z,57.65
2023-05-07T07:20:18.000Z,58.93
2023-05-07T07:22:45.969Z,59.86
2023-05-07T07:25:13.251Z,60.35
2023-05-07T07:27:41.128Z,60.61
2023-05-07T07:30:09.701Z,61.46
2023-05-07T07:32:39.637Z,61.38
2023-05-07T07:35:07.355Z,61.86
2023-05-07T07:37:34.486Z,62.14
2023-05-07T07:40:01.751Z,62.43
2023-05-07T07:42:30.309Z,62.39
2023-05-07T07:44:58.704Z,62.55
2023-05-07T07:47:29.149Z,62.93
2023-05-07T07:49:56.645Z,62.60
2023-05-07T07:52:23.936Z,62.72
2023-05-07T07:54:50.941Z,62.74
2023-05-07T07:57:19.033Z,63.02
2023-05-07T07:59:47.245Z,62.55
2023-05-07T08:02:15.984Z,62.54
2023-05-07T08:04:44.479Z,62.59
2023-05-07T08:07:12.576Z,62.59
2023-05-07T08:09:42.423Z,62.92
2023-05-07T08:12:10.813Z,62.96
2023-05-07T08:14:39.154Z,62.36
2023-05-07T08:17:07.785Z,62.34
2023-05-07T08:19:35.713Z,61.97
2023-05-07T08:22:05.337Z,61.44
2023-05-07T08:24:32.964Z,61.68
2023-05-07T08:27:00.241Z,62.02
2023-05-07T08:29:27.258Z,62.34
2023-05-07T08:31:54.318Z,62.34
2023-05-07T08:34:23.119Z,62.64
2023-05-07T08:36:52.129Z,62.42
2023-05-07T08:39:22.374Z,62.18
2023-05-07T08:41:56.539Z,61.66
2023-05-07T08:44:28.048Z,61.45
2023-05-07T08:46:57.909Z,61.02
2023-05-07T08:49:25.385Z,61.10
2023-05-07T08:51:53.533Z,61.32
2023-05-07T08:54:22.686Z,61.30
2023-05-07T08:56:49.790Z,61.50
2023-05-07T08:59:16.901Z,61.23
2023-05-07T09:01:45.911Z,61.25
2023-05-07T09:04:14.287Z,61.17
2023-05-07T09:06:43.155Z,60.86
2023-05-07T09:09:18.674Z,60.45
2023-05-07T09:11:46.112Z,59.83
2023-05-07T09:14:15.550Z,59.00
2023-05-07T09:16:44.895Z,58.79
2023-05-07T09:19:12.504Z,58.45
2023-05-07T09:21:44.349Z,58.25
2023-05-07T09:24:14.139Z,57.72
2023-05-07T09:26:42.306Z,56.56
2023-05-07T09:29:11.806Z,56.22
2023-05-07T09:31:39.786Z,56.02
2023-05-07T09:34:09.532Z,55.54
2023-05-07T09:36:39.630Z,54.95
2023-05-07T09:39:06.735Z,55.12
2023-05-07T09:41:34.043Z,54.42
2023-05-07T09:44:10.027Z,53.90
2023-05-07T09:46:44.867Z,53.42
2023-05-07T09:49:23.956Z,53.16
2023-05-07T09:51:56.572Z,53.08
2023-05-07T09:54:27.036Z,52.52
2023-05-07T09:56:56.768Z,52.29
2023-05-07T09:59:30.129Z,53.64
2023-05-07T10:02:02.733Z,54.37
2023-05-07T10:04:33.337Z,54.67
2023-05-07T10:07:02.010Z,54.72
2023-05-07T10:09:31.594Z,55.73
2023-05-07T10:11:59.819Z,55.60
2023-05-07T10:14:29.169Z,55.32
2023-05-07T10:16:57.364Z,55.93
2023-05-07T10:19:25.205Z,56.18
2023-05-07T10:22:03.932Z,56.59
2023-05-07T10:24:37.882Z,56.39
2023-05-07T10:27:13.778Z,56.44
2023-05-07T10:30:15.050Z,56.69
2023-05-07T10:32:50.288Z,56.96
2023-05-07T10:35:31.561Z,57.51
2023-05-07T10:38:00.283Z,57.81
2023-05-07T10:40:32.066Z,57.93
2023-05-07T10:43:08.470Z,57.69
2023-05-07T10:45:45.339Z,57.86
2023-05-07T10:51:24.533Z,57.85
2023-05-07T10:54:11.670Z,57.40
2023-05-07T10:56:44.362Z,57.00
2023-05-07T10:59:21.760Z,56.88
2023-05-07T11:02:00.397Z,56.91
2023-05-07T11:05:22.896Z,56.97
2023-05-07T11:08:22.396Z,56.73
2023-05-07T11:11:07.607Z,56.72
2023-05-07T11:13:46.152Z,56.53
2023-05-07T11:16:26.321Z,56.47
2023-05-07T11:19:13.825Z,56.81
2023-05-07T11:21:45.226Z,57.00
2023-05-07T11:24:20.121Z,57.01
2023-05-07T11:26:55.413Z,57.41
2023-05-07T11:29:24.645Z,57.87
2023-05-07T11:32:01.393Z,57.83
2023-05-07T11:34:33.623Z,58.23
2023-05-07T11:39:41.666Z,59.05
2023-05-07T11:42:26.107Z,59.21
2023-05-07T11:44:53.174Z,60.04
2023-05-07T11:47:21.106Z,60.20
2023-05-07T11:49:52.334Z,60.10
2023-05-07T11:52:20.894Z,60.29
2023-05-07T11:54:56.373Z,60.52
2023-05-07T11:57:26.568Z,59.81
2023-05-07T12:00:00.029Z,59.86
2023-05-07T12:02:27.715Z,59.84
2023-05-07T12:04:56.196Z,60.26
2023-05-07T12:07:26.169Z,60.05
2023-05-07T12:09:53.428Z,59.90
2023-05-07T12:12:20.411Z,60.13
2023-05-07T12:14:47.587Z,60.33
2023-05-07T12:17:15.942Z,60.10
2023-05-07T12:19:45.834Z,60.38
2023-05-07T12:22:13.966Z,60.05
2023-05-07T12:24:57.729Z,59.52
2023-05-07T12:27:24.957Z,59.16
2023-05-07T12:29:52.019Z,58.66
2023-05-07T12:32:21.595Z,58.86
2023-05-07T12:34:51.535Z,58.90
2023-05-07T12:37:32.328Z,58.97
2023-05-07T12:40:12.494Z,59.61
2023-05-07T12:42:41.113Z,59.43
2023-05-07T12:45:15.106Z,59.59
2023-05-07T12:47:49.309Z,59.92
2023-05-07T12:50:17.315Z,60.09
2023-05-07T12:52:46.961Z,59.70
2023-05-07T12:55:16.729Z,59.81
2023-05-07T12:57:46.842Z,59.96
2023-05-07T13:00:14.833Z,60.34
2023-05-07T13:02:46.953Z,59.86
2023-05-07T13:05:14.611Z,59.91
2023-05-07T13:07:42.394Z,60.01
2023-05-07T13:10:10.100Z,59.89
2023-05-07T13:12:37.825Z,59.87
2023-05-07T13:15:08.388Z,59.59
2023-05-07T13:17:38.274Z,59.61
2023-05-07T13:20:06.979Z,60.19
2023-05-07T13:22:34.568Z,60.21
2023-05-07T13:25:04.576Z,60.34
2023-05-07T13:27:32.057Z,59.95
2023-05-07T13:29:59.090Z,59.81
2023-05-07T13:32:26.096Z,59.21
2023-05-07T13:34:53.157Z,58.72
2023-05-07T13:37:20.214Z,58.13
2023-05-07T13:39:47.205Z,58.00
2023-05-07T13:42:14.217Z,57.97
2023-05-07T13:44:41.586Z,57.18
2023-05-07T13:47:10.413Z,56.43
2023-05-07T13:49:37.669Z,56.01
2023-05-07T13:52:05.445Z,55.78
2023-05-07T13:54:32.688Z,55.18
2023-05-07T13:56:59.624Z,55.00
2023-05-07T13:59:29.886Z,55.69
2023-05-07T14:01:57.541Z,55.20
2023-05-07T14:04:24.778Z,54.57
2023-05-07T14:06:52.215Z,54.87
2023-05-07T14:09:22.196Z,54.85
2023-05-07T14:11:52.365Z,54.53
2023-05-07T14:14:20.270Z,55.10
2023-05-07T14:16:51.107Z,55.69
2023-05-07T14:19:19.220Z,55.50
2023-05-07T14:21:46.111Z,55.61
2023-05-07T14:24:13.553Z,55.29
2023-05-07T14:26:40.860Z,56.02
2023-05-07T14:29:10.592Z,56.11
2023-05-07T14:31:37.916Z,56.17
2023-05-07T14:34:07.928Z,56.54
2023-05-07T14:36:34.871Z,56.25
2023-05-07T14:39:05.133Z,55.70
2023-05-07T14:41:34.433Z,55.78
2023-05-07T14:44:05.252Z,56.13
2023-05-07T14:46:32.373Z,56.61
2023-05-07T14:49:03.646Z,56.39
2023-05-07T14:51:32.175Z,56.70
2023-05-07T14:54:02.315Z,56.95
2023-05-07T14:56:31.029Z,56.80
2023-05-07T14:58:58.852Z,56.99
2023-05-07T15:01:27.897Z,57.04
2023-05-07T15:03:55.588Z,56.77
2023-05-07T15:06:22.984Z,55.52
2023-05-07T15:08:51.766Z,55.69
2023-05-07T15:11:21.365Z,56.03
2023-05-07T15:13:48.788Z,56.25
2023-05-07T15:16:16.272Z,56.24
2023-05-07T15:18:44.033Z,56.34
2023-05-07T15:21:11.195Z,56.79
2023-05-07T15:23:39.536Z,56.96
2023-05-07T15:26:06.661Z,57.31
2023-05-07T15:28:33.907Z,57.87
2023-05-07T15:31:01.401Z,57.00
2023-05-07T15:33:28.680Z,56.84
2023-05-07T15:35:59.903Z,57.45
2023-05-07T15:38:27.713Z,57.32
2023-05-07T15:40:55.674Z,56.99
2023-05-07T15:43:22.808Z,57.50
2023-05-07T15:45:50.143Z,57.43
2023-05-07T15:48:17.267Z,57.21
2023-05-07T15:50:44.250Z,56.93
2023-05-07T15:53:13.780Z,56.46
2023-05-07T15:55:43.148Z,57.02
2023-05-07T15:58:10.504Z,57.31
2023-05-07T16:00:40.912Z,57.33
2023-05-07T16:03:09.014Z,56.92
2023-05-07T16:05:36.302Z,56.88
2023-05-07T16:08:04.266Z,57.20
2023-05-07T16:10:31.740Z,57.12
2023-05-07T16:12:59.031Z,56.93
2023-05-07T16:15:26.031Z,56.34
2023-05-07T16:17:58.122Z,55.87
2023-05-07T16:20:32.887Z,55.29
2023-05-07T16:22:59.775Z,56.08
2023-05-07T16:25:26.839Z,56.96
2023-05-07T16:27:55.217Z,57.49
2023-05-07T16:30:22.411Z,57.81
2023-05-07T16:32:49.660Z,57.96
2023-05-07T16:35:16.700Z,58.09
2023-05-07T16:37:44.133Z,58.09
2023-05-07T16:40:12.731Z,58.05
2023-05-07T16:42:39.938Z,57.62
2023-05-07T16:45:07.498Z,57.88
2023-05-07T16:47:34.610Z,58.47
2023-05-07T16:50:01.738Z,58.51
2023-05-07T16:52:30.276Z,58.67
2023-05-07T16:55:00.936Z,58.70
2023-05-07T16:57:29.666Z,59.14
2023-05-07T16:59:57.408Z,59.63
2023-05-07T17:02:24.863Z,60.56
2023-05-07T17:04:52.075Z,60.46
2023-05-07T17:07:21.250Z,60.74
2023-05-07T17:09:48.236Z,60.81
2023-05-07T17:12:15.153Z,61.55
2023-05-07T17:14:42.228Z,61.38
2023-05-07T17:17:09.218Z,61.49
2023-05-07T17:19:39.909Z,61.19
2023-05-07T17:22:07.859Z,61.01
2023-05-07T17:24:34.781Z,60.76
2023-05-07T17:27:01.689Z,60.61
2023-05-07T17:29:30.412Z,60.06
2023-05-07T17:31:57.518Z,60.36
2023-05-07T17:34:24.906Z,59.98
2023-05-07T17:36:51.838Z,60.06
2023-05-07T17:39:18.768Z,59.54
2023-05-07T17:41:46.221Z,58.42
2023-05-07T17:44:17.290Z,58.25
2023-05-07T17:46:44.357Z,58.82
2023-05-07T17:49:11.398Z,58.56
2023-05-07T17:51:52.753Z,58.97
2023-05-07T17:54:22.985Z,58.76
2023-05-07T17:56:49.877Z,58.33
2023-05-07T17:59:16.787Z,53.53
2023-05-07T18:01:44.474Z,49.25
2023-05-07T18:04:11.496Z,47.48
2023-05-07T18:06:39.002Z,47.17
2023-05-07T18:09:05.946Z,46.35
2023-05-07T18:11:33.742Z,46.30
2023-05-07T18:14:01.344Z,45.61
2023-05-07T18:16:28.432Z,45.77
2023-05-07T18:18:56.321Z,45.93
2023-05-07T18:21:23.358Z,46.04
2023-05-07T18:23:51.590Z,48.16
2023-05-07T18:26:18.651Z,50.32
2023-05-07T18:28:46.462Z,50.78
2023-05-07T18:31:13.671Z,50.95
2023-05-07T18:33:40.995Z,51.54
2023-05-07T18:36:08.136Z,51.62
2023-05-07T18:38:35.346Z,52.24
2023-05-07T18:41:06.159Z,53.41
2023-05-07T18:43:34.095Z,54.04
2023-05-07T18:46:01.546Z,54.48
2023-05-07T18:48:28.673Z,54.82
2023-05-07T18:50:55.717Z,55.39
2023-05-07T18:53:22.861Z,54.43
2023-05-07T18:55:53.364Z,55.16
2023-05-07T18:58:20.674Z,55.59
2023-05-07T19:00:48.482Z,56.30
2023-05-07T19:03:16.587Z,55.44
2023-05-07T19:05:44.534Z,55.84
2023-05-07T19:08:12.083Z,56.06
2023-05-07T19:10:39.199Z,56.63
2023-05-07T19:13:06.914Z,57.10
2023-05-07T19:15:34.033Z,56.95
2023-05-07T19:18:01.209Z,56.78
2023-05-07T19:20:29.150Z,57.46
2023-05-07T19:22:56.464Z,57.68
2023-05-07T19:25:23.700Z,57.90
2023-05-07T19:27:51.268Z,57.66
2023-05-07T19:30:18.928Z,57.39
2023-05-07T19:32:46.123Z,57.52
2023-05-07T19:35:13.236Z,57.61
2023-05-07T19:37:40.509Z,57.50
2023-05-07T19:40:09.358Z,57.82
2023-05-07T19:42:36.520Z,57.96
2023-05-07T19:45:04.914Z,57.92
2023-05-07T19:47:31.913Z,58.38
2023-05-07T19:49:59.004Z,58.28
2023-05-07T19:52:26.679Z,58.09
2023-05-07T19:54:54.250Z,58.17
2023-05-07T19:57:21.233Z,57.95
2023-05-07T19:59:48.116Z,57.89
2023-05-07T20:02:15.602Z,58.20
2023-05-07T20:04:42.660Z,58.54
2023-05-07T20:07:09.656Z,58.43
2023-05-07T20:09:36.610Z,58.30
2023-05-07T20:12:03.767Z,58.82
2023-05-07T20:14:30.818Z,58.77
2023-05-07T20:16:57.727Z,58.79
2023-05-07T20:19:26.749Z,59.08
2023-05-07T20:21:53.765Z,59.14
2023-05-07T20:24:20.736Z,59.00
2023-05-07T20:26:47.703Z,58.37
2023-05-07T20:29:19.317Z,58.89
2023-05-07T20:31:46.677Z,58.43
2023-05-07T20:34:13.720Z,58.20
2023-05-07T20:36:40.653Z,57.93
2023-05-07T20:39:08.087Z,58.01
2023-05-07T20:41:35.274Z,57.87
2023-05-07T20:44:02.807Z,57.96
2023-05-07T20:46:30.501Z,57.89
2023-05-07T20:48:57.514Z,57.99
2023-05-07T20:51:24.497Z,58.14
2023-05-07T20:53:51.545Z,57.98
2023-05-07T20:56:18.644Z,57.97
2023-05-07T20:58:45.669Z,58.17
2023-05-07T21:01:12.800Z,58.10
2023-05-07T21:03:39.733Z,58.09
2023-05-07T21:06:06.806Z,58.09
2023-05-07T21:08:34.189Z,58.30
2023-05-07T21:11:01.332Z,58.26
2023-05-07T21:13:28.485Z,58.15
2023-05-07T21:15:55.670Z,58.24
2023-05-07T21:18:23.434Z,57.92
2023-05-07T21:20:50.401Z,57.93
2023-05-07T21:23:17.349Z,58.22
2023-05-07T21:25:47.303Z,57.82
2023-05-07T21:28:14.451Z,57.63
2023-05-07T21:30:42.059Z,57.70
2023-05-07T21:33:09.614Z,58.13
2023-05-07T21:35:36.817Z,57.89
2023-05-07T21:38:04.111Z,58.13
2023-05-07T21:40:31.309Z,58.16
2023-05-07T21:43:02.441Z,58.04
2023-05-07T21:45:29.454Z,58.31
2023-05-07T21:47:56.736Z,58.07
2023-05-07T21:50:23.763Z,58.12
2023-05-07T21:52:50.787Z,58.34
2023-05-07T21:55:18.851Z,57.95
2023-05-07T21:58:01.343Z,58.11
2023-05-07T22:00:31.693Z,58.22
2023-05-07T22:02:58.869Z,58.42
2023-05-07T22:05:26.042Z,58.35
2023-05-07T22:07:52.971Z,58.37
2023-05-07T22:10:23.133Z,57.79
2023-05-07T22:12:50.495Z,58.18
2023-05-07T22:15:17.641Z,58.17
2023-05-07T22:17:44.738Z,57.80
2023-05-07T22:20:12.481Z,57.98
2023-05-07T22:22:53.318Z,57.88
2023-05-07T22:25:24.285Z,57.85
2023-05-07T22:27:51.968Z,58.02
2023-05-07T22:30:19.002Z,58.23
2023-05-07T22:32:46.096Z,58.09
2023-05-07T22:35:13.220Z,57.93
2023-05-07T22:37:40.172Z,57.87
2023-05-07T22:40:07.855Z,58.06
2023-05-07T22:42:34.892Z,57.86
2023-05-07T22:45:01.863Z,58.09
2023-05-07T22:47:33.810Z,57.80
2023-05-07T22:50:01.124Z,58.08
2023-05-07T22:52:28.170Z,58.36
2023-05-07T22:54:55.124Z,58.07
2023-05-07T22:57:22.027Z,58.04
2023-05-07T22:59:48.942Z,58.17
2023-05-07T23:02:15.965Z,58.21
2023-05-07T23:04:43.399Z,58.30
2023-05-07T23:07:10.475Z,58.58
2023-05-07T23:09:37.487Z,58.83
2023-05-07T23:12:05.010Z,58.21
2023-05-07T23:14:32.010Z,58.38
2023-05-07T23:16:58.926Z,58.35
2023-05-07T23:19:25.893Z,58.14
2023-05-07T23:21:53.375Z,58.12
2023-05-07T23:24:20.631Z,58.25
2023-05-07T23:26:47.531Z,57.85
2023-05-07T23:29:15.212Z,57.86
2023-05-07T23:31:42.643Z,58.04
2023-05-07T23:34:13.927Z,57.83
2023-05-07T23:36:40.839Z,57.86
2023-05-07T23:39:07.737Z,57.89
2023-05-07T23:41:34.746Z,57.59
2023-05-07T23:44:01.785Z,57.83
2023-05-07T23:46:29.741Z,57.65
2023-05-07T23:48:56.921Z,57.51
2023-05-07T23:51:24.476Z,57.21
2023-05-07T23:53:51.471Z,57.21
2023-05-07T23:56:18.779Z,57.15
2023-05-07T23:58:45.756Z,56.88
